sensor_id;sensor_type;location;lat;lon;timestamp;P1;durP1;ratioP1;P2;durP2;ratioP2
18076;SDS011;9165;45.714;11.362;2023-12-22T00:00:56;15.77;;;8.13;;
18076;SDS011;9165;45.714;11.362;2023-12-22T00:03:23;11.03;;;8.17;;
18076;SDS011;9165;45.714;11.362;2023-12-22T00:05:49;12.80;;;7.80;;
18076;SDS011;9165;45.714;11.362;2023-12-22T00:08:17;10.23;;;7.27;;
18076;SDS011;9165;45.714;11.362;2023-12-22T00:10:44;10.90;;;7.60;;
18076;SDS011;9165;45.714;11.362;2023-12-22T00:13:10;16.10;;;10.00;;
18076;SDS011;9165;45.714;11.362;2023-12-22T00:15:37;12.90;;;8.77;;
18076;SDS011;9165;45.714;11.362;2023-12-22T00:18:04;13.30;;;8.67;;
18076;SDS011;9165;45.714;11.362;2023-12-22T00:20:30;17.37;;;8.27;;
18076;SDS011;9165;45.714;11.362;2023-12-22T00:22:57;11.97;;;8.30;;
18076;SDS011;9165;45.714;11.362;2023-12-22T00:25:25;12.07;;;7.63;;
18076;SDS011;9165;45.714;11.362;2023-12-22T00:27:52;10.30;;;7.30;;
18076;SDS011;9165;45.714;11.362;2023-12-22T00:30:18;14.00;;;8.20;;
18076;SDS011;9165;45.714;11.362;2023-12-22T00:32:45;12.57;;;7.63;;
18076;SDS011;9165;45.714;11.362;2023-12-22T00:35:11;8.80;;;6.73;;
18076;SDS011;9165;45.714;11.362;2023-12-22T00:37:39;13.90;;;8.07;;
18076;SDS011;9165;45.714;11.362;2023-12-22T00:40:06;12.97;;;7.63;;
18076;SDS011;9165;45.714;11.362;2023-12-22T00:42:35;10.47;;;7.23;;
18076;SDS011;9165;45.714;11.362;2023-12-22T00:45:02;11.20;;;7.70;;
18076;SDS011;9165;45.714;11.362;2023-12-22T00:47:29;13.57;;;7.90;;
18076;SDS011;9165;45.714;11.362;2023-12-22T00:49:56;9.10;;;6.40;;
18076;SDS011;9165;45.714;11.362;2023-12-22T00:52:23;11.63;;;7.40;;
18076;SDS011;9165;45.714;11.362;2023-12-22T00:54:49;10.70;;;6.97;;
18076;SDS011;9165;45.714;11.362;2023-12-22T00:57:16;9.17;;;6.23;;
18076;SDS011;9165;45.714;11.362;2023-12-22T00:59:44;8.47;;;6.53;;
18076;SDS011;9165;45.714;11.362;2023-12-22T01:02:12;7.23;;;6.13;;
18076;SDS011;9165;45.714;11.362;2023-12-22T01:04:39;11.37;;;7.03;;
18076;SDS011;9165;45.714;11.362;2023-12-22T01:07:06;9.10;;;6.70;;
18076;SDS011;9165;45.714;11.362;2023-12-22T01:09:33;10.27;;;7.43;;
18076;SDS011;9165;45.714;11.362;2023-12-22T01:12:00;10.50;;;5.57;;
18076;SDS011;9165;45.714;11.362;2023-12-22T01:14:28;9.47;;;5.97;;
18076;SDS011;9165;45.714;11.362;2023-12-22T01:16:56;8.60;;;5.20;;
18076;SDS011;9165;45.714;11.362;2023-12-22T01:19:24;8.27;;;4.90;;
18076;SDS011;9165;45.714;11.362;2023-12-22T01:21:50;12.20;;;5.17;;
18076;SDS011;9165;45.714;11.362;2023-12-22T01:24:17;10.33;;;5.90;;
18076;SDS011;9165;45.714;11.362;2023-12-22T01:26:44;7.77;;;5.00;;
18076;SDS011;9165;45.714;11.362;2023-12-22T01:29:10;7.90;;;5.37;;
18076;SDS011;9165;45.714;11.362;2023-12-22T01:31:37;5.60;;;4.50;;
18076;SDS011;9165;45.714;11.362;2023-12-22T01:34:05;11.53;;;5.67;;
18076;SDS011;9165;45.714;11.362;2023-12-22T01:36:33;11.10;;;5.70;;
18076;SDS011;9165;45.714;11.362;2023-12-22T01:39:00;9.63;;;5.07;;
18076;SDS011;9165;45.714;11.362;2023-12-22T01:41:26;7.23;;;4.90;;
18076;SDS011;9165;45.714;11.362;2023-12-22T01:43:53;11.03;;;5.57;;
18076;SDS011;9165;45.714;11.362;2023-12-22T01:46:20;8.03;;;4.47;;
18076;SDS011;9165;45.714;11.362;2023-12-22T01:48:46;6.73;;;5.30;;
18076;SDS011;9165;45.714;11.362;2023-12-22T01:51:15;5.77;;;4.33;;
18076;SDS011;9165;45.714;11.362;2023-12-22T01:53:42;7.27;;;4.53;;
18076;SDS011;9165;45.714;11.362;2023-12-22T01:56:09;8.43;;;4.97;;
18076;SDS011;9165;45.714;11.362;2023-12-22T01:58:36;8.03;;;5.13;;
18076;SDS011;9165;45.714;11.362;2023-12-22T02:01:03;8.77;;;4.87;;
18076;SDS011;9165;45.714;11.362;2023-12-22T02:03:31;7.97;;;4.97;;
18076;SDS011;9165;45.714;11.362;2023-12-22T02:05:58;8.30;;;5.37;;
18076;SDS011;9165;45.714;11.362;2023-12-22T02:08:26;8.13;;;5.03;;
18076;SDS011;9165;45.714;11.362;2023-12-22T02:10:54;9.13;;;5.47;;
18076;SDS011;9165;45.714;11.362;2023-12-22T02:13:20;10.20;;;5.07;;
18076;SDS011;9165;45.714;11.362;2023-12-22T02:15:47;8.23;;;5.00;;
18076;SDS011;9165;45.714;11.362;2023-12-22T02:18:16;9.13;;;5.40;;
18076;SDS011;9165;45.714;11.362;2023-12-22T02:20:45;10.60;;;5.57;;
18076;SDS011;9165;45.714;11.362;2023-12-22T02:23:14;7.63;;;5.43;;
18076;SDS011;9165;45.714;11.362;2023-12-22T02:25:40;9.27;;;5.50;;
18076;SDS011;9165;45.714;11.362;2023-12-22T02:28:07;9.97;;;4.90;;
18076;SDS011;9165;45.714;11.362;2023-12-22T02:30:37;8.53;;;5.63;;
18076;SDS011;9165;45.714;11.362;2023-12-22T02:33:06;7.17;;;5.10;;
18076;SDS011;9165;45.714;11.362;2023-12-22T02:35:35;10.73;;;5.43;;
18076;SDS011;9165;45.714;11.362;2023-12-22T02:38:03;8.43;;;4.90;;
18076;SDS011;9165;45.714;11.362;2023-12-22T02:40:32;9.83;;;5.40;;
18076;SDS011;9165;45.714;11.362;2023-12-22T02:43:01;15.60;;;6.57;;
18076;SDS011;9165;45.714;11.362;2023-12-22T02:45:28;7.03;;;5.77;;
18076;SDS011;9165;45.714;11.362;2023-12-22T02:47:55;8.07;;;5.00;;
18076;SDS011;9165;45.714;11.362;2023-12-22T02:50:22;7.00;;;4.93;;
18076;SDS011;9165;45.714;11.362;2023-12-22T02:52:48;9.47;;;5.90;;
18076;SDS011;9165;45.714;11.362;2023-12-22T02:55:15;8.67;;;5.43;;
18076;SDS011;9165;45.714;11.362;2023-12-22T02:57:43;10.53;;;5.90;;
18076;SDS011;9165;45.714;11.362;2023-12-22T03:00:10;9.03;;;5.37;;
18076;SDS011;9165;45.714;11.362;2023-12-22T03:02:37;8.77;;;6.00;;
18076;SDS011;9165;45.714;11.362;2023-12-22T03:05:04;9.13;;;5.40;;
18076;SDS011;9165;45.714;11.362;2023-12-22T03:07:31;11.53;;;5.60;;
18076;SDS011;9165;45.714;11.362;2023-12-22T03:09:58;13.23;;;5.60;;
18076;SDS011;9165;45.714;11.362;2023-12-22T03:12:24;7.87;;;5.87;;
18076;SDS011;9165;45.714;11.362;2023-12-22T03:14:52;9.30;;;6.43;;
18076;SDS011;9165;45.714;11.362;2023-12-22T03:17:19;8.90;;;5.73;;
18076;SDS011;9165;45.714;11.362;2023-12-22T03:19:46;7.80;;;5.20;;
18076;SDS011;9165;45.714;11.362;2023-12-22T03:22:12;9.00;;;5.87;;
18076;SDS011;9165;45.714;11.362;2023-12-22T03:24:39;9.63;;;6.03;;
18076;SDS011;9165;45.714;11.362;2023-12-22T03:27:06;10.00;;;6.00;;
18076;SDS011;9165;45.714;11.362;2023-12-22T03:29:32;10.17;;;5.67;;
18076;SDS011;9165;45.714;11.362;2023-12-22T03:32:00;12.27;;;5.80;;
18076;SDS011;9165;45.714;11.362;2023-12-22T03:34:27;9.50;;;5.50;;
18076;SDS011;9165;45.714;11.362;2023-12-22T03:36:54;9.80;;;6.17;;
18076;SDS011;9165;45.714;11.362;2023-12-22T03:39:20;7.70;;;5.60;;
18076;SDS011;9165;45.714;11.362;2023-12-22T03:41:47;10.23;;;6.10;;
18076;SDS011;9165;45.714;11.362;2023-12-22T03:44:13;10.17;;;5.93;;
18076;SDS011;9165;45.714;11.362;2023-12-22T03:46:40;11.97;;;6.10;;
18076;SDS011;9165;45.714;11.362;2023-12-22T03:49:08;9.00;;;5.83;;
18076;SDS011;9165;45.714;11.362;2023-12-22T03:51:35;10.10;;;6.30;;
18076;SDS011;9165;45.714;11.362;2023-12-22T03:54:02;12.20;;;6.60;;
18076;SDS011;9165;45.714;11.362;2023-12-22T03:56:29;12.47;;;6.83;;
18076;SDS011;9165;45.714;11.362;2023-12-22T03:58:56;7.77;;;6.07;;
18076;SDS011;9165;45.714;11.362;2023-12-22T04:01:22;10.53;;;5.63;;
18076;SDS011;9165;45.714;11.362;2023-12-22T04:03:49;8.90;;;6.10;;
18076;SDS011;9165;45.714;11.362;2023-12-22T04:06:17;10.50;;;5.97;;
18076;SDS011;9165;45.714;11.362;2023-12-22T04:08:44;7.83;;;6.10;;
18076;SDS011;9165;45.714;11.362;2023-12-22T04:11:10;10.50;;;5.83;;
18076;SDS011;9165;45.714;11.362;2023-12-22T04:13:37;8.63;;;5.73;;
18076;SDS011;9165;45.714;11.362;2023-12-22T04:16:04;10.70;;;6.47;;
18076;SDS011;9165;45.714;11.362;2023-12-22T04:18:30;11.27;;;5.67;;
18076;SDS011;9165;45.714;11.362;2023-12-22T04:20:57;10.47;;;6.27;;
18076;SDS011;9165;45.714;11.362;2023-12-22T04:23:25;13.57;;;6.20;;
18076;SDS011;9165;45.714;11.362;2023-12-22T04:25:52;11.07;;;6.23;;
18076;SDS011;9165;45.714;11.362;2023-12-22T04:28:19;8.97;;;5.90;;
18076;SDS011;9165;45.714;11.362;2023-12-22T04:30:45;8.40;;;6.07;;
18076;SDS011;9165;45.714;11.362;2023-12-22T04:33:12;10.43;;;6.13;;
18076;SDS011;9165;45.714;11.362;2023-12-22T04:35:39;12.50;;;6.37;;
18076;SDS011;9165;45.714;11.362;2023-12-22T04:38:05;9.90;;;6.57;;
18076;SDS011;9165;45.714;11.362;2023-12-22T04:40:34;10.93;;;6.47;;
18076;SDS011;9165;45.714;11.362;2023-12-22T04:43:01;10.80;;;6.27;;
18076;SDS011;9165;45.714;11.362;2023-12-22T04:45:27;9.10;;;5.90;;
18076;SDS011;9165;45.714;11.362;2023-12-22T04:47:54;8.80;;;6.00;;
18076;SDS011;9165;45.714;11.362;2023-12-22T04:50:21;8.73;;;5.90;;
18076;SDS011;9165;45.714;11.362;2023-12-22T04:52:48;8.90;;;5.80;;
18076;SDS011;9165;45.714;11.362;2023-12-22T04:55:14;7.77;;;6.20;;
18076;SDS011;9165;45.714;11.362;2023-12-22T04:57:42;11.53;;;6.80;;
18076;SDS011;9165;45.714;11.362;2023-12-22T05:00:09;13.03;;;7.23;;
18076;SDS011;9165;45.714;11.362;2023-12-22T05:02:36;9.63;;;6.47;;
18076;SDS011;9165;45.714;11.362;2023-12-22T05:05:03;8.60;;;5.83;;
18076;SDS011;9165;45.714;11.362;2023-12-22T05:07:30;11.50;;;6.87;;
18076;SDS011;9165;45.714;11.362;2023-12-22T05:09:56;10.07;;;6.27;;
18076;SDS011;9165;45.714;11.362;2023-12-22T05:12:24;10.23;;;6.97;;
18076;SDS011;9165;45.714;11.362;2023-12-22T05:14:52;9.27;;;6.33;;
18076;SDS011;9165;45.714;11.362;2023-12-22T05:17:19;9.90;;;6.87;;
18076;SDS011;9165;45.714;11.362;2023-12-22T05:19:46;13.17;;;6.87;;
18076;SDS011;9165;45.714;11.362;2023-12-22T07:11:01;17.10;;;9.57;;
18076;SDS011;9165;45.714;11.362;2023-12-22T09:06:10;24.43;;;14.27;;
18076;SDS011;9165;45.714;11.362;2023-12-22T10:26:00;22.57;;;16.20;;
18076;SDS011;9165;45.714;11.362;2023-12-22T10:28:27;25.20;;;15.53;;
18076;SDS011;9165;45.714;11.362;2023-12-22T10:31:17;22.40;;;14.93;;
18076;SDS011;9165;45.714;11.362;2023-12-22T10:33:44;29.50;;;16.03;;
18076;SDS011;9165;45.714;11.362;2023-12-22T10:36:10;20.10;;;15.10;;
18076;SDS011;9165;45.714;11.362;2023-12-22T10:38:37;23.33;;;16.00;;
18076;SDS011;9165;45.714;11.362;2023-12-22T10:41:06;31.50;;;16.97;;
18076;SDS011;9165;45.714;11.362;2023-12-22T10:43:36;25.60;;;17.73;;
18076;SDS011;9165;45.714;11.362;2023-12-22T10:46:04;31.20;;;17.60;;
18076;SDS011;9165;45.714;11.362;2023-12-22T10:48:31;27.57;;;17.37;;
18076;SDS011;9165;45.714;11.362;2023-12-22T10:50:57;26.47;;;16.67;;
18076;SDS011;9165;45.714;11.362;2023-12-22T10:53:24;24.93;;;17.60;;
18076;SDS011;9165;45.714;11.362;2023-12-22T10:55:52;26.47;;;17.80;;
18076;SDS011;9165;45.714;11.362;2023-12-22T10:58:23;26.23;;;17.93;;
18076;SDS011;9165;45.714;11.362;2023-12-22T11:01:03;23.10;;;16.40;;
18076;SDS011;9165;45.714;11.362;2023-12-22T11:03:30;31.00;;;18.17;;
18076;SDS011;9165;45.714;11.362;2023-12-22T11:05:58;22.77;;;16.67;;
18076;SDS011;9165;45.714;11.362;2023-12-22T11:08:27;27.83;;;18.47;;
18076;SDS011;9165;45.714;11.362;2023-12-22T11:10:56;29.17;;;17.77;;
18076;SDS011;9165;45.714;11.362;2023-12-22T11:13:24;24.00;;;16.83;;
18076;SDS011;9165;45.714;11.362;2023-12-22T11:15:51;31.20;;;16.73;;
18076;SDS011;9165;45.714;11.362;2023-12-22T11:18:18;26.20;;;17.57;;
18076;SDS011;9165;45.714;11.362;2023-12-22T11:20:46;29.17;;;17.20;;
18076;SDS011;9165;45.714;11.362;2023-12-22T11:23:16;32.80;;;19.97;;
18076;SDS011;9165;45.714;11.362;2023-12-22T11:25:48;26.10;;;17.17;;
18076;SDS011;9165;45.714;11.362;2023-12-22T11:28:19;28.50;;;17.70;;
18076;SDS011;9165;45.714;11.362;2023-12-22T11:31:02;34.77;;;17.77;;
18076;SDS011;9165;45.714;11.362;2023-12-22T11:33:52;29.47;;;17.33;;
18076;SDS011;9165;45.714;11.362;2023-12-22T11:36:24;24.93;;;16.93;;
18076;SDS011;9165;45.714;11.362;2023-12-22T11:39:37;25.43;;;17.03;;
18076;SDS011;9165;45.714;11.362;2023-12-22T11:45:59;30.77;;;16.50;;
18076;SDS011;9165;45.714;11.362;2023-12-22T11:49:01;27.60;;;15.90;;
18076;SDS011;9165;45.714;11.362;2023-12-22T11:54:57;24.67;;;15.80;;
18076;SDS011;9165;45.714;11.362;2023-12-22T12:06:58;22.40;;;12.30;;
18076;SDS011;9165;45.714;11.362;2023-12-22T12:09:56;22.47;;;12.00;;
18076;SDS011;9165;45.714;11.362;2023-12-22T13:15:06;8.27;;;5.90;;
18076;SDS011;9165;45.714;11.362;2023-12-22T13:18:17;16.10;;;7.63;;
18076;SDS011;9165;45.714;11.362;2023-12-22T13:21:09;20.87;;;11.13;;
18076;SDS011;9165;45.714;11.362;2023-12-22T13:26:33;10.00;;;5.77;;
18076;SDS011;9165;45.714;11.362;2023-12-22T13:29:01;6.47;;;5.33;;
18076;SDS011;9165;45.714;11.362;2023-12-22T13:31:42;11.97;;;6.77;;
18076;SDS011;9165;45.714;11.362;2023-12-22T13:34:19;10.53;;;6.80;;
18076;SDS011;9165;45.714;11.362;2023-12-22T13:36:58;20.43;;;10.47;;
18076;SDS011;9165;45.714;11.362;2023-12-22T13:39:39;27.37;;;14.60;;
18076;SDS011;9165;45.714;11.362;2023-12-22T13:42:08;31.70;;;18.93;;
18076;SDS011;9165;45.714;11.362;2023-12-22T13:57:20;29.23;;;20.13;;
18076;SDS011;9165;45.714;11.362;2023-12-22T14:00:39;35.60;;;21.63;;
18076;SDS011;9165;45.714;11.362;2023-12-22T14:09:09;38.90;;;22.37;;
18076;SDS011;9165;45.714;11.362;2023-12-22T14:11:43;39.33;;;22.07;;
18076;SDS011;9165;45.714;11.362;2023-12-22T14:14:13;33.80;;;22.40;;
18076;SDS011;9165;45.714;11.362;2023-12-22T14:16:40;34.70;;;23.03;;
18076;SDS011;9165;45.714;11.362;2023-12-22T14:19:06;36.27;;;21.70;;
18076;SDS011;9165;45.714;11.362;2023-12-22T14:21:33;31.23;;;18.07;;
18076;SDS011;9165;45.714;11.362;2023-12-22T14:24:00;26.03;;;17.23;;
18076;SDS011;9165;45.714;11.362;2023-12-22T14:26:28;22.37;;;13.83;;
18076;SDS011;9165;45.714;11.362;2023-12-22T14:28:55;12.57;;;8.33;;
18076;SDS011;9165;45.714;11.362;2023-12-22T14:31:26;12.83;;;6.90;;
18076;SDS011;9165;45.714;11.362;2023-12-22T14:33:53;16.17;;;6.73;;
18076;SDS011;9165;45.714;11.362;2023-12-22T14:36:23;10.90;;;6.27;;
18076;SDS011;9165;45.714;11.362;2023-12-22T14:38:50;12.77;;;7.07;;
18076;SDS011;9165;45.714;11.362;2023-12-22T14:41:16;16.00;;;6.43;;
18076;SDS011;9165;45.714;11.362;2023-12-22T14:44:22;9.07;;;5.97;;
18076;SDS011;9165;45.714;11.362;2023-12-22T15:20:51;15.57;;;8.80;;
18076;SDS011;9165;45.714;11.362;2023-12-22T15:23:36;12.83;;;8.10;;
18076;SDS011;9165;45.714;11.362;2023-12-22T15:27:07;15.03;;;7.27;;
18076;SDS011;9165;45.714;11.362;2023-12-22T15:54:40;6.23;;;4.53;;
18076;SDS011;9165;45.714;11.362;2023-12-22T16:01:09;6.97;;;5.10;;
18076;SDS011;9165;45.714;11.362;2023-12-22T16:24:14;15.10;;;7.70;;
18076;SDS011;9165;45.714;11.362;2023-12-22T16:26:44;15.63;;;8.67;;
18076;SDS011;9165;45.714;11.362;2023-12-22T16:29:19;12.27;;;7.60;;
18076;SDS011;9165;45.714;11.362;2023-12-22T16:31:59;11.30;;;6.23;;
18076;SDS011;9165;45.714;11.362;2023-12-22T16:34:42;9.67;;;5.83;;
18076;SDS011;9165;45.714;11.362;2023-12-22T16:38:05;11.47;;;5.17;;
18076;SDS011;9165;45.714;11.362;2023-12-22T16:52:46;8.23;;;4.43;;
18076;SDS011;9165;45.714;11.362;2023-12-22T16:55:13;6.33;;;3.47;;
18076;SDS011;9165;45.714;11.362;2023-12-22T16:57:43;7.73;;;4.17;;
18076;SDS011;9165;45.714;11.362;2023-12-22T17:00:10;6.30;;;3.73;;
18076;SDS011;9165;45.714;11.362;2023-12-22T17:02:38;7.70;;;3.80;;
18076;SDS011;9165;45.714;11.362;2023-12-22T17:05:09;8.13;;;2.83;;
18076;SDS011;9165;45.714;11.362;2023-12-22T17:07:36;3.87;;;2.37;;
18076;SDS011;9165;45.714;11.362;2023-12-22T17:10:04;7.03;;;3.30;;
18076;SDS011;9165;45.714;11.362;2023-12-22T17:12:31;5.17;;;2.60;;
18076;SDS011;9165;45.714;11.362;2023-12-22T17:14:57;4.97;;;3.50;;
18076;SDS011;9165;45.714;11.362;2023-12-22T17:17:24;5.37;;;3.93;;
18076;SDS011;9165;45.714;11.362;2023-12-22T17:19:52;7.20;;;4.10;;
18076;SDS011;9165;45.714;11.362;2023-12-22T17:22:19;6.63;;;4.30;;
18076;SDS011;9165;45.714;11.362;2023-12-22T17:24:48;6.87;;;3.90;;
18076;SDS011;9165;45.714;11.362;2023-12-22T17:27:16;7.00;;;4.23;;
18076;SDS011;9165;45.714;11.362;2023-12-22T17:29:43;7.47;;;4.40;;
18076;SDS011;9165;45.714;11.362;2023-12-22T17:32:10;10.53;;;4.80;;
18076;SDS011;9165;45.714;11.362;2023-12-22T17:34:36;6.93;;;3.67;;
18076;SDS011;9165;45.714;11.362;2023-12-22T17:37:03;7.03;;;3.90;;
18076;SDS011;9165;45.714;11.362;2023-12-22T17:39:30;4.87;;;3.30;;
18076;SDS011;9165;45.714;11.362;2023-12-22T17:41:59;7.73;;;4.50;;
18076;SDS011;9165;45.714;11.362;2023-12-22T17:44:27;6.30;;;2.60;;
18076;SDS011;9165;45.714;11.362;2023-12-22T17:46:53;5.40;;;2.87;;
18076;SDS011;9165;45.714;11.362;2023-12-22T17:49:20;3.17;;;2.27;;
18076;SDS011;9165;45.714;11.362;2023-12-22T17:51:47;4.57;;;3.07;;
18076;SDS011;9165;45.714;11.362;2023-12-22T17:54:14;7.27;;;3.73;;
18076;SDS011;9165;45.714;11.362;2023-12-22T17:56:41;6.27;;;3.43;;
18076;SDS011;9165;45.714;11.362;2023-12-22T17:59:07;11.27;;;6.73;;
18076;SDS011;9165;45.714;11.362;2023-12-22T18:01:36;13.23;;;7.13;;
18076;SDS011;9165;45.714;11.362;2023-12-22T18:04:05;9.13;;;5.50;;
18076;SDS011;9165;45.714;11.362;2023-12-22T18:06:32;12.03;;;5.97;;
18076;SDS011;9165;45.714;11.362;2023-12-22T18:08:58;11.50;;;6.03;;
18076;SDS011;9165;45.714;11.362;2023-12-22T18:11:26;11.87;;;6.10;;
18076;SDS011;9165;45.714;11.362;2023-12-22T18:13:53;14.37;;;7.30;;
18076;SDS011;9165;45.714;11.362;2023-12-22T18:16:20;14.10;;;8.40;;
18076;SDS011;9165;45.714;11.362;2023-12-22T18:18:48;15.57;;;9.07;;
18076;SDS011;9165;45.714;11.362;2023-12-22T18:21:15;9.77;;;6.23;;
18076;SDS011;9165;45.714;11.362;2023-12-22T18:23:41;9.53;;;5.83;;
18076;SDS011;9165;45.714;11.362;2023-12-22T18:26:08;8.83;;;6.07;;
18076;SDS011;9165;45.714;11.362;2023-12-22T18:28:35;9.67;;;5.97;;
18076;SDS011;9165;45.714;11.362;2023-12-22T18:31:02;12.60;;;5.60;;
18076;SDS011;9165;45.714;11.362;2023-12-22T18:33:29;9.57;;;5.57;;
18076;SDS011;9165;45.714;11.362;2023-12-22T18:35:58;12.60;;;6.83;;
18076;SDS011;9165;45.714;11.362;2023-12-22T18:38:25;8.00;;;5.53;;
18076;SDS011;9165;45.714;11.362;2023-12-22T18:40:51;13.13;;;7.50;;
18076;SDS011;9165;45.714;11.362;2023-12-22T18:43:18;12.60;;;7.10;;
18076;SDS011;9165;45.714;11.362;2023-12-22T18:45:45;8.63;;;5.57;;
18076;SDS011;9165;45.714;11.362;2023-12-22T18:48:11;9.63;;;6.13;;
18076;SDS011;9165;45.714;11.362;2023-12-22T18:50:39;10.57;;;6.30;;
18076;SDS011;9165;45.714;11.362;2023-12-22T18:53:08;9.40;;;5.33;;
18076;SDS011;9165;45.714;11.362;2023-12-22T18:55:34;10.40;;;6.00;;
18076;SDS011;9165;45.714;11.362;2023-12-22T18:58:01;8.00;;;4.40;;
18076;SDS011;9165;45.714;11.362;2023-12-22T19:00:28;7.97;;;4.67;;
18076;SDS011;9165;45.714;11.362;2023-12-22T19:02:56;5.93;;;4.63;;
18076;SDS011;9165;45.714;11.362;2023-12-22T19:05:23;20.30;;;11.30;;
18076;SDS011;9165;45.714;11.362;2023-12-22T19:07:50;29.33;;;13.90;;
18076;SDS011;9165;45.714;11.362;2023-12-22T19:10:18;27.23;;;16.33;;
18076;SDS011;9165;45.714;11.362;2023-12-22T19:12:44;13.07;;;8.50;;
18076;SDS011;9165;45.714;11.362;2023-12-22T19:15:16;9.40;;;6.03;;
18076;SDS011;9165;45.714;11.362;2023-12-22T19:17:44;9.47;;;6.10;;
18076;SDS011;9165;45.714;11.362;2023-12-22T19:20:11;7.80;;;5.20;;
18076;SDS011;9165;45.714;11.362;2023-12-22T19:22:43;14.20;;;7.97;;
18076;SDS011;9165;45.714;11.362;2023-12-22T19:25:12;34.23;;;17.30;;
18076;SDS011;9165;45.714;11.362;2023-12-22T19:27:42;30.57;;;16.43;;
18076;SDS011;9165;45.714;11.362;2023-12-22T19:30:15;12.13;;;7.33;;
18076;SDS011;9165;45.714;11.362;2023-12-22T19:32:45;28.47;;;15.73;;
18076;SDS011;9165;45.714;11.362;2023-12-22T19:35:13;9.43;;;5.80;;
18076;SDS011;9165;45.714;11.362;2023-12-22T19:37:45;9.03;;;6.50;;
18076;SDS011;9165;45.714;11.362;2023-12-22T19:40:17;10.90;;;6.17;;
18076;SDS011;9165;45.714;11.362;2023-12-22T19:42:45;13.97;;;7.27;;
18076;SDS011;9165;45.714;11.362;2023-12-22T19:45:12;16.53;;;11.17;;
18076;SDS011;9165;45.714;11.362;2023-12-22T19:47:41;17.60;;;10.53;;
18076;SDS011;9165;45.714;11.362;2023-12-22T19:50:08;24.00;;;14.83;;
18076;SDS011;9165;45.714;11.362;2023-12-22T19:52:35;28.10;;;16.83;;
18076;SDS011;9165;45.714;11.362;2023-12-22T19:55:02;32.90;;;18.27;;
18076;SDS011;9165;45.714;11.362;2023-12-22T19:57:31;25.47;;;15.73;;
18076;SDS011;9165;45.714;11.362;2023-12-22T19:59:59;24.07;;;15.60;;
18076;SDS011;9165;45.714;11.362;2023-12-22T20:02:26;26.97;;;15.70;;
18076;SDS011;9165;45.714;11.362;2023-12-22T20:04:53;31.17;;;15.23;;
18076;SDS011;9165;45.714;11.362;2023-12-22T20:07:19;27.17;;;15.97;;
18076;SDS011;9165;45.714;11.362;2023-12-22T20:09:46;28.77;;;15.00;;
18076;SDS011;9165;45.714;11.362;2023-12-22T20:12:13;28.97;;;16.30;;
18076;SDS011;9165;45.714;11.362;2023-12-22T20:14:39;33.20;;;15.07;;
18076;SDS011;9165;45.714;11.362;2023-12-22T20:17:08;25.90;;;13.77;;
18076;SDS011;9165;45.714;11.362;2023-12-22T20:19:34;28.30;;;15.33;;
18076;SDS011;9165;45.714;11.362;2023-12-22T20:22:03;23.87;;;13.60;;
18076;SDS011;9165;45.714;11.362;2023-12-22T20:24:30;30.30;;;15.73;;
18076;SDS011;9165;45.714;11.362;2023-12-22T20:26:57;27.90;;;15.57;;
18076;SDS011;9165;45.714;11.362;2023-12-22T20:29:23;25.73;;;15.87;;
18076;SDS011;9165;45.714;11.362;2023-12-22T20:31:50;34.93;;;16.77;;
18076;SDS011;9165;45.714;11.362;2023-12-22T20:34:18;25.83;;;14.77;;
18076;SDS011;9165;45.714;11.362;2023-12-22T20:36:45;28.47;;;15.30;;
18076;SDS011;9165;45.714;11.362;2023-12-22T20:39:11;23.87;;;13.77;;
18076;SDS011;9165;45.714;11.362;2023-12-22T20:41:41;26.00;;;14.70;;
18076;SDS011;9165;45.714;11.362;2023-12-22T20:44:13;31.40;;;15.80;;
18076;SDS011;9165;45.714;11.362;2023-12-22T20:46:53;26.40;;;15.03;;
18076;SDS011;9165;45.714;11.362;2023-12-22T20:49:28;30.70;;;14.90;;
18076;SDS011;9165;45.714;11.362;2023-12-22T20:52:02;24.47;;;15.20;;
18076;SDS011;9165;45.714;11.362;2023-12-22T20:54:34;25.47;;;14.17;;
18076;SDS011;9165;45.714;11.362;2023-12-22T20:57:01;24.93;;;13.20;;
18076;SDS011;9165;45.714;11.362;2023-12-22T20:59:35;24.73;;;13.80;;
18076;SDS011;9165;45.714;11.362;2023-12-22T21:02:03;25.43;;;14.33;;
18076;SDS011;9165;45.714;11.362;2023-12-22T21:04:31;25.27;;;14.57;;
18076;SDS011;9165;45.714;11.362;2023-12-22T21:06:58;21.03;;;12.27;;
18076;SDS011;9165;45.714;11.362;2023-12-22T21:09:25;21.00;;;12.13;;
18076;SDS011;9165;45.714;11.362;2023-12-22T21:11:56;19.43;;;12.07;;
18076;SDS011;9165;45.714;11.362;2023-12-22T21:14:23;16.10;;;9.80;;
18076;SDS011;9165;45.714;11.362;2023-12-22T21:22:48;19.43;;;11.73;;
18076;SDS011;9165;45.714;11.362;2023-12-22T21:25:22;16.30;;;8.30;;
18076;SDS011;9165;45.714;11.362;2023-12-22T21:27:51;21.70;;;12.00;;
18076;SDS011;9165;45.714;11.362;2023-12-22T21:30:43;24.47;;;13.43;;
18076;SDS011;9165;45.714;11.362;2023-12-22T21:42:26;21.03;;;12.67;;
18076;SDS011;9165;45.714;11.362;2023-12-22T21:45:09;20.80;;;11.03;;
18076;SDS011;9165;45.714;11.362;2023-12-22T21:47:45;18.73;;;9.90;;
18076;SDS011;9165;45.714;11.362;2023-12-22T21:50:12;14.77;;;9.47;;
18076;SDS011;9165;45.714;11.362;2023-12-22T21:52:42;22.40;;;12.03;;
18076;SDS011;9165;45.714;11.362;2023-12-22T21:55:11;29.97;;;15.50;;
18076;SDS011;9165;45.714;11.362;2023-12-22T21:57:39;27.93;;;15.73;;
18076;SDS011;9165;45.714;11.362;2023-12-22T22:00:08;29.50;;;16.40;;
18076;SDS011;9165;45.714;11.362;2023-12-22T22:02:34;42.80;;;22.33;;
18076;SDS011;9165;45.714;11.362;2023-12-22T22:05:01;31.17;;;17.43;;
18076;SDS011;9165;45.714;11.362;2023-12-22T22:07:52;26.57;;;14.53;;
18076;SDS011;9165;45.714;11.362;2023-12-22T22:10:31;49.90;;;24.63;;
18076;SDS011;9165;45.714;11.362;2023-12-22T22:13:07;31.40;;;15.93;;
18076;SDS011;9165;45.714;11.362;2023-12-22T22:15:34;25.83;;;12.50;;
18076;SDS011;9165;45.714;11.362;2023-12-22T22:18:00;19.23;;;11.53;;
18076;SDS011;9165;45.714;11.362;2023-12-22T22:20:27;16.63;;;10.47;;
18076;SDS011;9165;45.714;11.362;2023-12-22T22:22:54;15.70;;;10.17;;
18076;SDS011;9165;45.714;11.362;2023-12-22T22:25:20;15.87;;;9.97;;
18076;SDS011;9165;45.714;11.362;2023-12-22T22:27:47;24.77;;;13.33;;
18076;SDS011;9165;45.714;11.362;2023-12-22T22:30:16;28.47;;;15.87;;
18076;SDS011;9165;45.714;11.362;2023-12-22T22:32:42;33.93;;;16.47;;
18076;SDS011;9165;45.714;11.362;2023-12-22T22:35:09;26.40;;;15.33;;
18076;SDS011;9165;45.714;11.362;2023-12-22T22:37:35;29.30;;;12.93;;
18076;SDS011;9165;45.714;11.362;2023-12-22T22:40:02;19.40;;;11.27;;
18076;SDS011;9165;45.714;11.362;2023-12-22T22:42:30;13.97;;;9.10;;
18076;SDS011;9165;45.714;11.362;2023-12-22T22:44:57;15.33;;;9.07;;
18076;SDS011;9165;45.714;11.362;2023-12-22T22:47:25;16.43;;;9.53;;
18076;SDS011;9165;45.714;11.362;2023-12-22T22:49:52;20.17;;;9.80;;
18076;SDS011;9165;45.714;11.362;2023-12-22T22:52:18;18.93;;;9.97;;
18076;SDS011;9165;45.714;11.362;2023-12-22T22:54:45;24.30;;;10.87;;
18076;SDS011;9165;45.714;11.362;2023-12-22T22:57:12;16.93;;;8.97;;
18076;SDS011;9165;45.714;11.362;2023-12-22T22:59:38;11.83;;;8.53;;
18076;SDS011;9165;45.714;11.362;2023-12-22T23:02:05;16.13;;;7.97;;
18076;SDS011;9165;45.714;11.362;2023-12-22T23:04:33;8.83;;;5.87;;
18076;SDS011;9165;45.714;11.362;2023-12-22T23:06:59;14.97;;;7.73;;
18076;SDS011;9165;45.714;11.362;2023-12-22T23:09:26;13.33;;;7.57;;
18076;SDS011;9165;45.714;11.362;2023-12-22T23:14:27;17.67;;;9.57;;
18076;SDS011;9165;45.714;11.362;2023-12-22T23:16:53;21.47;;;11.50;;
18076;SDS011;9165;45.714;11.362;2023-12-22T23:19:20;15.97;;;9.47;;